KGYY/GYY METAR and TAF weather

Enter ICAO airport designator
Station Type Date Time Source
KGYY METAR 2020/01/23 05:55 UTC NOAA

KGYY 230555Z AUTO 18006KT 10SM OVC110 02/M08 A3013 RMK AO2 T00161076 10016 20010 400261035


Station Type Date Time Source
KGYY Decoded METAR 2020/01/23 05:55 UTC NOAA

Gary Regional, IN, United States (KGYY) 41-37N 087-25W
Jan 23, 2020 - 12:55 AM EST / 2020.01.23 0555 UTC
Wind: from the S (180 degrees) at 7 MPH (6 KT):0
Visibility: 10 mile(s):0
Sky conditions: overcast
Temperature: 34.9 F (1.6 C)
Windchill: 28 F (-2 C):1
Dew Point: 18.3 F (-7.6 C)
Relative Humidity: 50%
Pressure (altimeter): 30.13 in. Hg (1020 hPa)
ob: KGYY 230555Z AUTO 18006KT 10SM OVC110 02/M08 A3013 RMK AO2 T00161076 10016 20010 400261035
cycle: 6

Station Type Date Time Source
KGYY TAF 2020/01/23 06:34 UTC NOAA

TAF KGYY 230532Z 2306/2406 18010KT P6SM SCT025 OVC100
FM230800 17009KT 3SM -SN BR OVC020
FM231000 17009KT 1 1/2SM -SN OVC015
FM231500 17010KT 3SM -SN BR OVC010
FM232300 14007KT 1 1/2SM -SNDZ BR OVC008

Example: see airport list